Time;durP1;ratioP1;P1;durP2;ratioP2;P2;SDS_P1;SDS_P2;PMS_P1;PMS_P2;Temp;Humidity;BMP_temperature;BMP_pressure;BME280_temperature;BME280_humidity;BME280_pressure;Samples;Min_cycle;Max_cycle;Signal;HPM_P1;HPM_P2
2021/03/21 00:00:24;;;;;;;5.53;3.97;;;;;;;;;;5002268;28;20359;-76
2021/03/21 00:02:49;;;;;;;4.67;4.10;;;;;;;;;;5001491;28;20240;-76
2021/03/21 00:05:14;;;;;;;4.90;4.07;;;;;;;;;;5018885;28;20461;-76
2021/03/21 00:07:40;;;;;;;5.53;4.20;;;;;;;;;;5000836;28;20677;-76
2021/03/21 00:10:06;;;;;;;5.00;4.50;;;;;;;;;;5001741;28;20297;-76
2021/03/21 00:12:31;;;;;;;4.40;4.00;;;;;;;;;;5001723;28;20588;-76
2021/03/21 00:14:57;;;;;;;8.60;4.60;;;;;;;;;;4984752;28;20446;-76
2021/03/21 00:17:22;;;;;;;6.00;4.20;;;;;;;;;;5017797;28;20225;-76
2021/03/21 00:19:47;;;;;;;3.93;3.60;;;;;;;;;;5000308;28;20214;-76
2021/03/21 00:22:13;;;;;;;4.03;3.63;;;;;;;;;;5019914;28;20276;-75
2021/03/21 00:24:38;;;;;;;5.57;4.00;;;;;;;;;;4984905;28;20218;-76
2021/03/21 00:27:04;;;;;;;9.80;5.40;;;;;;;;;;5018248;28;20535;-76
2021/03/21 00:29:29;;;;;;;5.90;4.60;;;;;;;;;;5018608;28;20218;-75
2021/03/21 00:31:54;;;;;;;6.43;3.97;;;;;;;;;;5017873;28;20355;-76
2021/03/21 00:34:20;;;;;;;5.63;4.47;;;;;;;;;;5018181;28;20225;-75
2021/03/21 00:36:45;;;;;;;5.57;4.87;;;;;;;;;;4984366;28;20221;-76
2021/03/21 00:39:10;;;;;;;5.53;4.90;;;;;;;;;;4984770;28;20209;-76
2021/03/21 00:41:36;;;;;;;5.50;4.40;;;;;;;;;;4984527;28;20221;-76
2021/03/21 00:44:01;;;;;;;5.27;4.77;;;;;;;;;;5001316;28;20305;-75
2021/03/21 00:46:26;;;;;;;5.70;5.00;;;;;;;;;;4984489;28;20222;-76
2021/03/21 00:48:52;;;;;;;6.13;5.63;;;;;;;;;;5000627;28;20228;-76
2021/03/21 00:51:17;;;;;;;6.47;5.27;;;;;;;;;;5001091;28;20574;-76
2021/03/21 00:53:43;;;;;;;7.10;4.80;;;;;;;;;;4983746;28;20254;-76
2021/03/21 00:56:10;;;;;;;7.10;5.60;;;;;;;;;;5000981;28;20248;-75
2021/03/21 00:58:37;;;;;;;7.00;5.27;;;;;;;;;;5000966;28;20464;-75
2021/03/21 01:01:05;;;;;;;6.27;5.67;;;;;;;;;;4984160;28;20687;-76
2021/03/21 01:03:31;;;;;;;7.43;6.43;;;;;;;;;;4984323;28;20893;-77
2021/03/21 01:05:59;;;;;;;6.47;5.70;;;;;;;;;;5000349;28;20487;-77
2021/03/21 01:08:29;;;;;;;9.17;7.03;;;;;;;;;;5000925;28;20225;-76
2021/03/21 01:10:58;;;;;;;9.30;6.10;;;;;;;;;;5000759;28;20726;-77
2021/03/21 01:13:24;;;;;;;8.03;5.90;;;;;;;;;;4985065;28;20464;-75
2021/03/21 01:15:49;;;;;;;7.00;5.83;;;;;;;;;;5000423;28;20454;-75
2021/03/21 01:18:21;;;;;;;7.70;6.60;;;;;;;;;;4984808;28;20491;-76
2021/03/21 01:20:47;;;;;;;14.50;6.70;;;;;;;;;;5017486;28;20217;-75
2021/03/21 01:23:12;;;;;;;9.37;6.97;;;;;;;;;;5000526;28;20457;-76
2021/03/21 01:25:38;;;;;;;8.20;7.07;;;;;;;;;;5000979;28;20216;-76
2021/03/21 01:28:03;;;;;;;8.20;7.13;;;;;;;;;;5000166;28;20475;-77
2021/03/21 01:30:29;;;;;;;8.30;6.17;;;;;;;;;;5017908;28;20224;-76
2021/03/21 01:32:55;;;;;;;9.23;6.97;;;;;;;;;;5000191;28;20221;-78
2021/03/21 01:35:21;;;;;;;9.50;8.20;;;;;;;;;;4984516;28;20221;-76
2021/03/21 01:37:46;;;;;;;10.00;7.47;;;;;;;;;;4983997;28;20483;-77
2021/03/21 01:40:14;;;;;;;9.17;7.33;;;;;;;;;;5000725;28;20454;-76
2021/03/21 01:42:42;;;;;;;9.30;7.70;;;;;;;;;;5017676;28;20628;-76
2021/03/21 01:45:29;;;;;;;8.33;7.50;;;;;;;;;;5016216;28;20463;-76
2021/03/21 01:47:55;;;;;;;11.53;9.60;;;;;;;;;;4999856;28;20451;-77
2021/03/21 01:50:32;;;;;;;11.97;7.90;;;;;;;;;;4983920;28;20452;-76
2021/03/21 01:52:57;;;;;;;10.40;9.40;;;;;;;;;;4999323;28;20727;-77
2021/03/21 01:55:23;;;;;;;11.20;8.93;;;;;;;;;;4999868;28;20464;-76
2021/03/21 01:57:50;;;;;;;12.50;9.23;;;;;;;;;;4999613;28;20673;-76
2021/03/21 02:00:15;;;;;;;17.43;9.07;;;;;;;;;;5000112;28;20491;-77
2021/03/21 02:02:41;;;;;;;10.70;8.57;;;;;;;;;;5000176;28;20776;-77
2021/03/21 02:05:06;;;;;;;11.73;8.90;;;;;;;;;;4999956;28;20245;-77
2021/03/21 02:08:04;;;;;;;13.70;9.43;;;;;;;;;;4999745;28;20477;-76
2021/03/21 02:11:11;;;;;;;11.90;8.70;;;;;;;;;;4967069;28;20250;-77
2021/03/21 02:13:47;;;;;;;12.70;10.10;;;;;;;;;;5016357;28;20464;-77
2021/03/21 02:16:24;;;;;;;12.47;9.37;;;;;;;;;;4983276;28;20453;-77
2021/03/21 02:19:55;;;;;;;16.37;10.47;;;;;;;;;;5015822;28;20507;-78
2021/03/21 02:22:31;;;;;;;11.53;9.70;;;;;;;;;;4924188;29;21060;-77
2021/03/21 02:25:22;;;;;;;13.47;10.87;;;;;;;;;;4957388;28;20470;-76
2021/03/21 02:28:04;;;;;;;12.10;10.07;;;;;;;;;;4994882;28;20463;-75
2021/03/21 02:30:35;;;;;;;12.00;10.53;;;;;;;;;;5000061;28;20456;-76
2021/03/21 02:33:06;;;;;;;13.83;11.70;;;;;;;;;;4983237;28;20471;-76
2021/03/21 02:35:38;;;;;;;15.80;10.97;;;;;;;;;;4983894;28;20472;-77
2021/03/21 02:38:12;;;;;;;16.53;12.37;;;;;;;;;;5016008;28;20452;-76
2021/03/21 02:40:51;;;;;;;16.90;12.60;;;;;;;;;;4984108;28;20450;-76
2021/03/21 02:43:26;;;;;;;15.60;12.07;;;;;;;;;;4986838;28;20454;-76
2021/03/21 02:45:55;;;;;;;20.23;12.90;;;;;;;;;;5019527;28;20944;-78
2021/03/21 02:48:56;;;;;;;15.10;11.60;;;;;;;;;;5020807;28;20512;-78
2021/03/21 02:51:43;;;;;;;14.47;12.97;;;;;;;;;;4988642;28;20998;-76
2021/03/21 02:54:12;;;;;;;15.43;10.83;;;;;;;;;;5003936;28;20472;-76
2021/03/21 02:56:42;;;;;;;15.80;12.87;;;;;;;;;;5004415;28;20466;-76
2021/03/21 02:59:22;;;;;;;18.40;13.67;;;;;;;;;;4987394;28;20460;-76
2021/03/21 03:01:53;;;;;;;14.17;11.97;;;;;;;;;;4987185;28;20456;-77
2021/03/21 03:04:22;;;;;;;17.17;12.53;;;;;;;;;;5002513;28;20459;-77
2021/03/21 03:07:01;;;;;;;16.83;12.80;;;;;;;;;;4987000;28;20462;-77
2021/03/21 03:09:32;;;;;;;18.80;12.87;;;;;;;;;;5002837;28;20449;-76
2021/03/21 03:12:32;;;;;;;15.20;12.70;;;;;;;;;;5002945;28;20484;-78
2021/03/21 03:14:57;;;;;;;15.20;12.03;;;;;;;;;;4998105;28;20553;-76
2021/03/21 03:17:39;;;;;;;15.10;12.53;;;;;;;;;;5019331;28;20539;-76
2021/03/21 03:20:12;;;;;;;16.57;13.67;;;;;;;;;;5002949;28;20217;-77
2021/03/21 03:23:00;;;;;;;15.80;13.17;;;;;;;;;;5020292;28;20888;-76
2021/03/21 03:25:32;;;;;;;15.63;11.83;;;;;;;;;;5002178;28;20711;-75
2021/03/21 03:28:20;;;;;;;14.17;12.67;;;;;;;;;;5011907;28;20467;-76
2021/03/21 03:31:16;;;;;;;14.70;11.30;;;;;;;;;;5007366;28;20428;-74
2021/03/21 03:33:42;;;;;;;17.03;12.57;;;;;;;;;;5021462;28;20518;-74
2021/03/21 03:36:11;;;;;;;18.03;12.60;;;;;;;;;;5008787;28;20736;-75
2021/03/21 03:38:38;;;;;;;15.93;12.53;;;;;;;;;;5027843;28;20206;-75
2021/03/21 03:41:18;;;;;;;17.53;11.20;;;;;;;;;;5022067;28;20458;-74
2021/03/21 03:43:59;;;;;;;16.30;13.53;;;;;;;;;;5005450;28;20938;-74
2021/03/21 03:46:39;;;;;;;22.17;13.40;;;;;;;;;;5039693;28;20566;-74
2021/03/21 03:49:11;;;;;;;19.27;13.73;;;;;;;;;;5022332;28;20744;-74
2021/03/21 03:52:01;;;;;;;16.80;13.23;;;;;;;;;;5039395;28;20441;-75
2021/03/21 03:54:34;;;;;;;17.70;13.27;;;;;;;;;;5017105;28;20480;-75
2021/03/21 03:57:11;;;;;;;19.57;14.30;;;;;;;;;;5018587;28;20484;-74
2021/03/21 03:59:56;;;;;;;23.50;15.60;;;;;;;;;;5018446;28;20928;-76
2021/03/21 04:02:51;;;;;;;20.20;14.43;;;;;;;;;;5018441;28;20464;-75
2021/03/21 04:05:25;;;;;;;21.50;15.00;;;;;;;;;;5018046;28;20460;-73
2021/03/21 04:07:59;;;;;;;18.03;14.10;;;;;;;;;;4983011;28;20456;-74
2021/03/21 04:10:30;;;;;;;22.37;14.50;;;;;;;;;;5000076;28;20450;-74
2021/03/21 04:13:28;;;;;;;22.00;13.70;;;;;;;;;;5000099;28;20461;-74
2021/03/21 04:15:55;;;;;;;17.37;12.50;;;;;;;;;;4991467;28;20455;-74
2021/03/21 04:18:25;;;;;;;17.70;11.70;;;;;;;;;;4997387;28;20743;-74
2021/03/21 04:21:11;;;;;;;16.50;12.90;;;;;;;;;;4999635;28;20492;-74
2021/03/21 04:23:55;;;;;;;16.87;10.77;;;;;;;;;;5000119;28;20740;-73
2021/03/21 04:26:44;;;;;;;15.33;11.50;;;;;;;;;;4999200;28;20830;-74
2021/03/21 04:29:24;;;;;;;14.77;11.03;;;;;;;;;;5000031;28;20771;-73
2021/03/21 04:31:51;;;;;;;15.30;10.90;;;;;;;;;;4998780;28;20451;-73
2021/03/21 04:34:17;;;;;;;12.13;10.70;;;;;;;;;;5014506;28;20767;-73
2021/03/21 04:36:44;;;;;;;13.50;9.67;;;;;;;;;;4997148;28;20456;-74
2021/03/21 04:39:13;;;;;;;16.93;10.70;;;;;;;;;;4988636;28;20918;-75
2021/03/21 04:41:50;;;;;;;10.83;9.57;;;;;;;;;;5014835;28;20496;-73
2021/03/21 04:44:31;;;;;;;15.00;9.63;;;;;;;;;;5017273;28;20468;-73
2021/03/21 04:47:09;;;;;;;12.63;9.77;;;;;;;;;;5016684;28;20458;-74
2021/03/21 04:49:34;;;;;;;17.03;11.10;;;;;;;;;;5033050;28;20453;-74
2021/03/21 04:52:12;;;;;;;12.30;9.83;;;;;;;;;;5033584;28;20463;-73
2021/03/21 04:54:38;;;;;;;14.90;10.43;;;;;;;;;;5032893;28;20226;-74
2021/03/21 04:57:27;;;;;;;14.13;9.50;;;;;;;;;;5000538;28;20458;-73
2021/03/21 04:59:53;;;;;;;11.83;8.53;;;;;;;;;;5000193;28;21361;-74
2021/03/21 05:02:29;;;;;;;13.93;9.80;;;;;;;;;;5017136;28;20556;-73
2021/03/21 05:05:31;;;;;;;11.30;8.17;;;;;;;;;;5016071;28;20564;-73
2021/03/21 05:08:05;;;;;;;13.23;9.33;;;;;;;;;;4972580;28;20461;-73
2021/03/21 05:10:35;;;;;;;14.17;9.97;;;;;;;;;;4997407;28;20469;-73
2021/03/21 05:13:08;;;;;;;14.23;11.00;;;;;;;;;;4980590;28;20520;-74
2021/03/21 05:15:44;;;;;;;15.17;10.43;;;;;;;;;;4996796;28;20453;-73
2021/03/21 05:18:36;;;;;;;19.60;14.20;;;;;;;;;;4996750;28;20504;-73
2021/03/21 05:21:17;;;;;;;16.30;12.77;;;;;;;;;;4980438;28;20476;-74
2021/03/21 05:23:47;;;;;;;16.80;12.30;;;;;;;;;;4981165;28;20551;-74
2021/03/21 05:26:22;;;;;;;17.00;12.33;;;;;;;;;;4997960;28;20450;-74
2021/03/21 05:29:12;;;;;;;17.70;12.70;;;;;;;;;;4999092;28;20466;-74
2021/03/21 05:31:37;;;;;;;20.00;17.17;;;;;;;;;;4996989;28;20467;-74
2021/03/21 05:34:03;;;;;;;17.37;12.27;;;;;;;;;;5012034;28;20468;-74
2021/03/21 05:36:41;;;;;;;17.00;12.30;;;;;;;;;;5016369;28;20604;-74
2021/03/21 05:39:19;;;;;;;23.27;17.40;;;;;;;;;;4999631;28;20499;-74
2021/03/21 05:42:14;;;;;;;24.67;18.83;;;;;;;;;;4997321;28;20544;-74
2021/03/21 05:45:18;;;;;;;23.20;18.13;;;;;;;;;;4997158;28;20485;-74
2021/03/21 05:48:02;;;;;;;20.63;16.80;;;;;;;;;;4996102;28;20454;-74
2021/03/21 05:50:44;;;;;;;17.87;13.33;;;;;;;;;;4997319;28;20451;-73
2021/03/21 05:53:42;;;;;;;12.90;10.67;;;;;;;;;;5018850;28;20728;-73
2021/03/21 05:56:21;;;;;;;11.20;8.43;;;;;;;;;;5015136;28;20455;-74
2021/03/21 05:59:06;;;;;;;10.80;8.47;;;;;;;;;;5032614;28;20721;-73
2021/03/21 06:01:41;;;;;;;9.67;7.10;;;;;;;;;;5015578;28;20842;-74
2021/03/21 06:04:30;;;;;;;10.30;6.43;;;;;;;;;;5015533;28;20735;-75
2021/03/21 06:07:30;;;;;;;11.27;7.40;;;;;;;;;;5031004;28;20468;-73
2021/03/21 06:10:22;;;;;;;11.70;7.43;;;;;;;;;;5002469;28;20500;-74
2021/03/21 06:13:20;;;;;;;13.40;9.83;;;;;;;;;;5018585;28;20470;-73
2021/03/21 06:16:08;;;;;;;14.47;10.07;;;;;;;;;;5019358;28;20773;-73
2021/03/21 06:19:05;;;;;;;12.07;9.27;;;;;;;;;;5011823;28;20536;-73
2021/03/21 06:22:01;;;;;;;12.53;9.20;;;;;;;;;;5022579;28;20460;-74
2021/03/21 06:24:54;;;;;;;16.60;11.23;;;;;;;;;;5007058;28;20471;-73
2021/03/21 06:27:28;;;;;;;17.80;12.67;;;;;;;;;;5006205;28;20526;-73
2021/03/21 06:30:20;;;;;;;16.10;12.60;;;;;;;;;;5040341;28;20751;-74
2021/03/21 06:33:10;;;;;;;18.90;15.13;;;;;;;;;;5040389;28;20527;-74
2021/03/21 06:35:49;;;;;;;21.87;17.20;;;;;;;;;;5039553;28;20471;-73
2021/03/21 06:38:55;;;;;;;19.80;15.77;;;;;;;;;;5023061;28;20535;-74
2021/03/21 06:41:39;;;;;;;19.77;13.70;;;;;;;;;;5018908;28;20501;-74
2021/03/21 06:44:20;;;;;;;25.57;18.43;;;;;;;;;;5019440;28;20462;-74
2021/03/21 06:47:08;;;;;;;25.07;20.37;;;;;;;;;;5019976;28;20465;-73
2021/03/21 06:49:38;;;;;;;23.30;19.60;;;;;;;;;;5035371;28;20703;-74
2021/03/21 06:52:26;;;;;;;23.67;18.53;;;;;;;;;;5020162;28;20485;-74
2021/03/21 06:54:55;;;;;;;22.33;18.80;;;;;;;;;;5019644;28;20493;-73
2021/03/21 06:57:40;;;;;;;23.30;19.70;;;;;;;;;;5035590;28;20453;-73
2021/03/21 07:00:33;;;;;;;26.60;21.73;;;;;;;;;;5019153;28;20455;-73
2021/03/21 07:03:09;;;;;;;22.73;18.57;;;;;;;;;;5018619;28;20462;-74
2021/03/21 07:05:43;;;;;;;23.40;20.43;;;;;;;;;;5035688;28;20780;-73
2021/03/21 07:08:25;;;;;;;26.40;18.90;;;;;;;;;;5037150;28;20738;-73
2021/03/21 07:11:16;;;;;;;17.70;15.37;;;;;;;;;;5021624;28;20453;-74
2021/03/21 07:14:09;;;;;;;19.37;15.07;;;;;;;;;;5027424;28;20491;-73
2021/03/21 07:17:08;;;;;;;18.23;15.33;;;;;;;;;;5051408;28;20881;-74
2021/03/21 07:19:52;;;;;;;13.87;12.33;;;;;;;;;;5031322;28;20603;-73
2021/03/21 07:22:58;;;;;;;15.10;10.07;;;;;;;;;;5030811;28;20460;-74
2021/03/21 07:25:53;;;;;;;11.30;8.03;;;;;;;;;;5035461;28;20479;-74
2021/03/21 07:28:45;;;;;;;14.80;10.60;;;;;;;;;;5035689;28;20532;-76
2021/03/21 07:31:33;;;;;;;10.30;7.57;;;;;;;;;;5014850;28;20506;-73
2021/03/21 07:34:26;;;;;;;10.93;6.70;;;;;;;;;;5023393;28;20480;-73
2021/03/21 07:37:05;;;;;;;8.03;6.20;;;;;;;;;;5023018;28;20448;-74
2021/03/21 07:40:02;;;;;;;9.07;5.60;;;;;;;;;;4993185;28;20478;-74
2021/03/21 07:42:46;;;;;;;6.20;4.67;;;;;;;;;;5021715;28;20543;-73
2021/03/21 07:45:33;;;;;;;11.67;6.40;;;;;;;;;;5039574;28;20465;-74
2021/03/21 07:48:14;;;;;;;12.00;8.70;;;;;;;;;;5038841;28;20537;-74
2021/03/21 07:51:03;;;;;;;8.87;7.47;;;;;;;;;;5021691;28;20452;-73
2021/03/21 07:53:34;;;;;;;7.20;6.20;;;;;;;;;;5038406;28;20519;-75
2021/03/21 07:56:23;;;;;;;7.97;6.23;;;;;;;;;;5004790;28;20449;-73
2021/03/21 07:58:57;;;;;;;4.43;3.63;;;;;;;;;;5020822;28;20475;-73
2021/03/21 08:01:22;;;;;;;5.93;3.80;;;;;;;;;;5032379;28;20958;-76
2021/03/21 08:03:58;;;;;;;5.00;3.83;;;;;;;;;;5040986;28;20468;-76
2021/03/21 08:06:34;;;;;;;6.77;4.23;;;;;;;;;;5004094;28;20268;-74
2021/03/21 08:09:05;;;;;;;4.23;3.60;;;;;;;;;;5021121;28;20459;-74
2021/03/21 08:11:33;;;;;;;5.87;4.03;;;;;;;;;;5021450;28;20460;-75
2021/03/21 08:14:12;;;;;;;5.77;4.20;;;;;;;;;;5037836;28;20521;-74
2021/03/21 08:16:43;;;;;;;6.80;5.00;;;;;;;;;;5038066;28;20442;-74
2021/03/21 08:19:11;;;;;;;6.17;4.73;;;;;;;;;;5021221;28;20467;-74
2021/03/21 08:21:36;;;;;;;5.60;3.60;;;;;;;;;;5020551;28;20726;-74
2021/03/21 08:24:11;;;;;;;7.80;4.23;;;;;;;;;;5020964;28;20472;-74
2021/03/21 08:26:37;;;;;;;6.07;4.23;;;;;;;;;;5038006;28;20229;-74
2021/03/21 08:29:06;;;;;;;5.37;4.17;;;;;;;;;;5020321;28;20524;-75
2021/03/21 08:31:42;;;;;;;4.00;3.43;;;;;;;;;;5037914;28;20460;-77
2021/03/21 08:34:30;;;;;;;5.40;4.20;;;;;;;;;;5020353;28;20467;-76
2021/03/21 08:36:56;;;;;;;5.10;3.93;;;;;;;;;;5020122;28;20457;-75
2021/03/21 08:39:39;;;;;;;5.63;4.03;;;;;;;;;;5019673;28;20464;-75
2021/03/21 08:42:05;;;;;;;5.13;2.60;;;;;;;;;;5020438;28;20448;-75
2021/03/21 08:44:37;;;;;;;3.57;2.60;;;;;;;;;;5004378;28;20498;-75
2021/03/21 08:47:04;;;;;;;4.03;3.03;;;;;;;;;;5003406;28;20532;-75
2021/03/21 08:49:38;;;;;;;4.73;3.70;;;;;;;;;;5020539;28;20468;-75
2021/03/21 08:52:04;;;;;;;4.30;2.90;;;;;;;;;;5019947;28;20464;-75
2021/03/21 08:54:35;;;;;;;5.57;3.97;;;;;;;;;;5037401;28;20556;-75
2021/03/21 08:57:04;;;;;;;10.30;4.30;;;;;;;;;;5037149;28;20539;-75
2021/03/21 08:59:38;;;;;;;5.20;3.70;;;;;;;;;;5037726;28;20517;-75
2021/03/21 09:02:12;;;;;;;4.77;3.70;;;;;;;;;;5036673;28;20463;-75
2021/03/21 09:04:46;;;;;;;9.10;3.77;;;;;;;;;;5019898;28;20478;-73
2021/03/21 09:07:20;;;;;;;9.27;3.23;;;;;;;;;;4999372;28;20464;-74
2021/03/21 09:09:45;;;;;;;4.73;2.80;;;;;;;;;;5000299;28;20553;-73
2021/03/21 09:12:22;;;;;;;10.53;4.43;;;;;;;;;;5000028;28;20470;-74
2021/03/21 09:14:48;;;;;;;8.10;3.80;;;;;;;;;;5016756;28;20230;-75
2021/03/21 09:17:24;;;;;;;6.10;3.80;;;;;;;;;;4983995;28;20533;-75
2021/03/21 09:19:57;;;;;;;7.80;3.40;;;;;;;;;;4999748;28;20520;-73
2021/03/21 09:22:37;;;;;;;8.90;3.97;;;;;;;;;;5017557;28;20458;-74
2021/03/21 09:25:12;;;;;;;9.27;3.73;;;;;;;;;;5016213;28;20596;-74
2021/03/21 09:27:41;;;;;;;5.93;3.23;;;;;;;;;;4984710;28;20903;-74
2021/03/21 09:30:40;;;;;;;8.03;4.23;;;;;;;;;;5011275;28;20454;-75
2021/03/21 09:33:08;;;;;;;8.63;4.93;;;;;;;;;;5011343;28;20616;-75
2021/03/21 09:35:48;;;;;;;6.43;3.90;;;;;;;;;;4994624;28;20497;-75
2021/03/21 09:38:20;;;;;;;4.47;3.80;;;;;;;;;;5003096;28;20824;-74
2021/03/21 09:40:54;;;;;;;8.23;3.87;;;;;;;;;;5003545;28;20450;-73
2021/03/21 09:43:22;;;;;;;5.53;4.60;;;;;;;;;;5003142;28;20428;-74
2021/03/21 09:45:53;;;;;;;11.47;4.83;;;;;;;;;;5003082;28;20526;-75
2021/03/21 09:48:25;;;;;;;11.50;4.30;;;;;;;;;;5002632;28;20767;-75
2021/03/21 09:51:02;;;;;;;9.17;4.83;;;;;;;;;;5002904;28;20542;-74
2021/03/21 09:53:58;;;;;;;10.07;4.30;;;;;;;;;;5019272;28;20494;-74
2021/03/21 09:56:41;;;;;;;8.37;4.27;;;;;;;;;;5018983;28;20457;-74
2021/03/21 09:59:25;;;;;;;6.17;3.60;;;;;;;;;;5002624;28;20636;-74
2021/03/21 10:02:02;;;;;;;8.30;5.30;;;;;;;;;;5036585;28;20487;-74
2021/03/21 10:04:34;;;;;;;9.90;4.00;;;;;;;;;;5018636;28;20531;-74
2021/03/21 10:07:09;;;;;;;7.30;3.90;;;;;;;;;;5036228;28;20483;-74
2021/03/21 10:09:35;;;;;;;6.50;4.33;;;;;;;;;;5002739;28;20464;-74
2021/03/21 10:12:07;;;;;;;11.10;3.80;;;;;;;;;;5019271;28;20465;-74
2021/03/21 10:14:32;;;;;;;7.03;3.50;;;;;;;;;;5019076;28;20453;-74
2021/03/21 10:16:59;;;;;;;7.87;3.47;;;;;;;;;;5019167;28;20456;-74
2021/03/21 10:19:46;;;;;;;8.87;3.90;;;;;;;;;;5002346;28;20233;-74
2021/03/21 10:22:19;;;;;;;9.50;3.60;;;;;;;;;;5035619;28;20536;-74
2021/03/21 10:24:46;;;;;;;5.30;3.73;;;;;;;;;;5019079;28;20450;-74
2021/03/21 10:27:11;;;;;;;7.73;3.80;;;;;;;;;;5018921;28;20462;-74
2021/03/21 10:29:39;;;;;;;4.60;3.00;;;;;;;;;;5036338;28;20833;-73
2021/03/21 10:32:22;;;;;;;8.23;3.60;;;;;;;;;;5019367;28;20509;-74
2021/03/21 10:34:49;;;;;;;4.70;3.43;;;;;;;;;;5003408;28;20476;-74
2021/03/21 10:37:40;;;;;;;9.30;4.57;;;;;;;;;;5020260;28;20444;-74
2021/03/21 10:40:10;;;;;;;6.73;3.50;;;;;;;;;;5018446;28;20802;-73
2021/03/21 10:42:44;;;;;;;9.90;3.50;;;;;;;;;;5019127;28;20457;-73
2021/03/21 10:45:13;;;;;;;9.10;3.80;;;;;;;;;;5035579;28;20479;-74
2021/03/21 10:47:40;;;;;;;4.87;3.33;;;;;;;;;;5036137;28;20465;-74
2021/03/21 10:50:12;;;;;;;7.70;3.73;;;;;;;;;;5035758;28;20495;-74
2021/03/21 10:52:44;;;;;;;5.93;3.43;;;;;;;;;;5018598;28;20466;-74
2021/03/21 10:55:16;;;;;;;7.07;3.50;;;;;;;;;;5001874;28;20547;-74
2021/03/21 10:57:41;;;;;;;10.97;4.33;;;;;;;;;;5035718;28;20457;-74
2021/03/21 11:00:13;;;;;;;8.83;4.50;;;;;;;;;;5035233;28;20452;-75
2021/03/21 11:02:43;;;;;;;10.10;6.57;;;;;;;;;;5037017;28;20259;-74
2021/03/21 11:05:24;;;;;;;10.20;4.70;;;;;;;;;;5039001;28;20775;-74
2021/03/21 11:08:00;;;;;;;13.37;4.13;;;;;;;;;;5039842;28;20536;-74
2021/03/21 11:10:33;;;;;;;8.53;4.50;;;;;;;;;;5004504;28;20734;-74
2021/03/21 11:12:59;;;;;;;11.47;5.40;;;;;;;;;;5022623;28;20453;-73
2021/03/21 11:15:25;;;;;;;10.90;5.30;;;;;;;;;;5038969;28;20532;-73
2021/03/21 11:17:50;;;;;;;17.53;6.10;;;;;;;;;;5039863;28;20933;-74
2021/03/21 11:20:23;;;;;;;11.50;5.10;;;;;;;;;;5021815;28;20504;-74
2021/03/21 11:22:49;;;;;;;13.47;6.53;;;;;;;;;;5022511;28;20273;-74
2021/03/21 11:25:15;;;;;;;13.63;6.20;;;;;;;;;;5021699;28;20462;-75
2021/03/21 11:27:48;;;;;;;9.40;4.83;;;;;;;;;;5022419;28;20890;-75
2021/03/21 11:30:17;;;;;;;17.23;5.90;;;;;;;;;;5005531;28;20241;-74
2021/03/21 11:32:43;;;;;;;8.30;6.00;;;;;;;;;;5039436;28;20452;-74
2021/03/21 11:35:15;;;;;;;11.60;5.20;;;;;;;;;;5021648;28;20464;-76
2021/03/21 11:37:45;;;;;;;20.23;5.43;;;;;;;;;;5006123;28;20625;-75
2021/03/21 11:40:15;;;;;;;13.63;6.07;;;;;;;;;;5021693;28;20544;-75
2021/03/21 11:42:43;;;;;;;14.50;5.63;;;;;;;;;;5039879;28;20904;-74
2021/03/21 11:45:16;;;;;;;15.57;6.87;;;;;;;;;;5021630;28;20501;-74
2021/03/21 11:47:46;;;;;;;21.83;6.97;;;;;;;;;;5039435;28;20465;-74
2021/03/21 11:50:31;;;;;;;22.20;6.93;;;;;;;;;;5021754;28;20558;-74
2021/03/21 11:52:59;;;;;;;16.20;6.37;;;;;;;;;;5021957;28;20495;-74
2021/03/21 11:55:28;;;;;;;20.67;6.90;;;;;;;;;;5021489;28;20448;-74
2021/03/21 11:58:12;;;;;;;12.07;6.10;;;;;;;;;;5039094;28;20898;-74
2021/03/21 12:00:41;;;;;;;14.00;6.10;;;;;;;;;;5021383;28;20440;-74
2021/03/21 12:03:11;;;;;;;11.07;6.13;;;;;;;;;;5021929;28;20734;-74
2021/03/21 12:05:39;;;;;;;14.03;6.30;;;;;;;;;;5004804;28;20520;-74
2021/03/21 12:08:06;;;;;;;16.20;7.03;;;;;;;;;;5022016;28;20531;-74
2021/03/21 12:10:34;;;;;;;15.37;5.70;;;;;;;;;;5020817;28;20466;-74
2021/03/21 12:13:23;;;;;;;18.47;6.80;;;;;;;;;;5021224;28;20611;-74
2021/03/21 12:15:51;;;;;;;11.30;5.80;;;;;;;;;;5003681;28;20522;-74
2021/03/21 12:18:18;;;;;;;14.93;6.67;;;;;;;;;;5021507;28;20473;-75
2021/03/21 12:20:55;;;;;;;23.70;7.67;;;;;;;;;;5004231;28;20463;-75
2021/03/21 12:23:39;;;;;;;8.83;5.10;;;;;;;;;;5021136;28;20729;-74
2021/03/21 12:26:07;;;;;;;13.93;7.37;;;;;;;;;;5005235;28;20471;-75
2021/03/21 12:28:34;;;;;;;16.23;6.07;;;;;;;;;;5039052;28;20423;-75
2021/03/21 12:31:03;;;;;;;11.70;5.50;;;;;;;;;;5004721;28;20853;-74
2021/03/21 12:33:32;;;;;;;16.93;5.90;;;;;;;;;;5003462;28;20444;-74
2021/03/21 12:36:03;;;;;;;12.30;6.10;;;;;;;;;;5021004;28;20464;-73
2021/03/21 12:38:47;;;;;;;20.77;9.13;;;;;;;;;;5037402;28;20446;-74
2021/03/21 12:41:40;;;;;;;17.47;6.07;;;;;;;;;;5020810;28;20842;-74
2021/03/21 12:44:27;;;;;;;13.90;5.43;;;;;;;;;;5020410;28;20480;-75
2021/03/21 12:47:03;;;;;;;22.03;10.57;;;;;;;;;;5004719;28;20493;-75
2021/03/21 12:49:43;;;;;;;35.30;19.87;;;;;;;;;;5039435;28;20443;-74
2021/03/21 12:52:14;;;;;;;14.23;6.50;;;;;;;;;;5020558;28;20514;-75
2021/03/21 12:54:41;;;;;;;11.90;5.50;;;;;;;;;;5017260;28;20470;-75
2021/03/21 12:57:11;;;;;;;18.90;5.13;;;;;;;;;;5016744;28;20526;-74
2021/03/21 12:59:38;;;;;;;14.30;5.53;;;;;;;;;;5018114;28;20466;-73
2021/03/21 13:02:04;;;;;;;11.47;4.77;;;;;;;;;;5016741;28;20925;-74
2021/03/21 13:04:29;;;;;;;9.40;5.03;;;;;;;;;;5017257;28;20447;-74
2021/03/21 13:06:55;;;;;;;5.30;3.70;;;;;;;;;;5017677;28;20564;-74
2021/03/21 13:09:20;;;;;;;14.07;4.30;;;;;;;;;;5017954;28;20225;-76
2021/03/21 13:11:45;;;;;;;14.03;4.00;;;;;;;;;;5017404;28;20468;-75
2021/03/21 13:14:11;;;;;;;9.47;3.87;;;;;;;;;;5016691;28;20299;-75
2021/03/21 13:16:36;;;;;;;13.93;4.00;;;;;;;;;;5000486;28;20212;-75
2021/03/21 13:19:01;;;;;;;6.20;3.50;;;;;;;;;;4999824;28;20234;-75
2021/03/21 13:21:27;;;;;;;8.37;3.70;;;;;;;;;;5016807;28;20352;-76
2021/03/21 13:23:52;;;;;;;7.90;3.50;;;;;;;;;;5017296;28;20227;-74
2021/03/21 13:26:17;;;;;;;6.83;3.30;;;;;;;;;;4999655;28;20223;-75
2021/03/21 13:28:43;;;;;;;9.13;2.70;;;;;;;;;;5000268;28;20245;-74
2021/03/21 13:31:09;;;;;;;7.30;3.53;;;;;;;;;;5017232;28;20646;-74
2021/03/21 13:33:35;;;;;;;6.70;3.60;;;;;;;;;;5017392;28;20437;-74
2021/03/21 13:36:01;;;;;;;7.63;3.30;;;;;;;;;;5016800;28;20463;-74
2021/03/21 13:38:29;;;;;;;5.93;2.83;;;;;;;;;;4999995;28;20849;-74
2021/03/21 13:40:57;;;;;;;6.70;3.10;;;;;;;;;;4999397;28;20474;-75
2021/03/21 13:43:25;;;;;;;10.40;3.73;;;;;;;;;;5016062;28;20474;-76
2021/03/21 13:45:52;;;;;;;5.50;2.70;;;;;;;;;;5016381;28;20457;-74
2021/03/21 13:48:21;;;;;;;7.80;2.53;;;;;;;;;;5016610;28;20439;-75
2021/03/21 13:50:46;;;;;;;4.87;3.03;;;;;;;;;;4999718;28;20490;-74
2021/03/21 13:53:14;;;;;;;5.63;2.80;;;;;;;;;;5022657;28;20486;-74
2021/03/21 13:55:44;;;;;;;5.90;3.23;;;;;;;;;;5003520;28;20223;-74
2021/03/21 13:58:10;;;;;;;10.30;3.60;;;;;;;;;;5019436;28;20521;-75
2021/03/21 14:00:37;;;;;;;4.60;2.50;;;;;;;;;;5020079;28;20475;-75
2021/03/21 14:03:03;;;;;;;4.40;2.60;;;;;;;;;;5002980;28;20464;-74
2021/03/21 14:05:28;;;;;;;6.53;2.10;;;;;;;;;;5019791;28;20494;-74
2021/03/21 14:07:54;;;;;;;7.40;2.30;;;;;;;;;;5036586;28;20475;-75
2021/03/21 14:10:21;;;;;;;6.00;2.60;;;;;;;;;;5036453;28;20222;-75
2021/03/21 14:12:47;;;;;;;5.03;2.53;;;;;;;;;;5003462;28;20506;-74
2021/03/21 14:15:18;;;;;;;5.07;2.47;;;;;;;;;;5018933;28;20531;-75
2021/03/21 14:17:43;;;;;;;4.93;2.20;;;;;;;;;;5020326;28;20229;-75
2021/03/21 14:20:08;;;;;;;5.20;2.00;;;;;;;;;;5036282;28;20433;-76
2021/03/21 14:22:34;;;;;;;3.63;1.93;;;;;;;;;;5003777;28;20306;-75
2021/03/21 14:24:59;;;;;;;4.33;2.30;;;;;;;;;;5019036;28;20613;-75
2021/03/21 14:27:24;;;;;;;3.90;1.57;;;;;;;;;;5019474;28;20246;-75
2021/03/21 14:29:50;;;;;;;2.60;1.63;;;;;;;;;;5019623;28;20549;-76
2021/03/21 14:32:15;;;;;;;3.40;1.70;;;;;;;;;;5036663;28;20611;-76
2021/03/21 14:34:41;;;;;;;1.83;1.50;;;;;;;;;;5019516;28;20250;-75
2021/03/21 14:37:06;;;;;;;2.00;1.40;;;;;;;;;;5003274;28;20224;-76
2021/03/21 14:39:32;;;;;;;8.73;2.57;;;;;;;;;;5023698;28;20452;-75
2021/03/21 14:41:57;;;;;;;3.00;1.53;;;;;;;;;;5006639;28;20222;-75
2021/03/21 14:44:23;;;;;;;5.23;2.03;;;;;;;;;;5006116;28;20302;-75
2021/03/21 14:46:48;;;;;;;5.23;2.40;;;;;;;;;;5040179;28;20276;-75
2021/03/21 14:49:13;;;;;;;3.60;1.30;;;;;;;;;;5005446;28;20273;-76
2021/03/21 14:51:39;;;;;;;2.00;1.13;;;;;;;;;;5023119;28;20226;-74
2021/03/21 14:54:04;;;;;;;2.00;1.47;;;;;;;;;;5005850;28;20245;-75
2021/03/21 14:56:29;;;;;;;2.03;1.20;;;;;;;;;;5023230;28;20301;-75
2021/03/21 14:58:55;;;;;;;1.90;1.43;;;;;;;;;;5022793;28;20223;-75
2021/03/21 15:01:20;;;;;;;3.47;1.50;;;;;;;;;;5022405;28;20304;-75
2021/03/21 15:03:45;;;;;;;2.87;1.67;;;;;;;;;;5005968;28;20358;-75
2021/03/21 15:06:11;;;;;;;1.87;1.40;;;;;;;;;;5021885;28;20221;-76
2021/03/21 15:08:37;;;;;;;1.67;1.33;;;;;;;;;;5022871;28;20460;-75
2021/03/21 15:11:03;;;;;;;2.67;1.37;;;;;;;;;;5039716;28;20227;-74
2021/03/21 15:13:29;;;;;;;3.00;1.20;;;;;;;;;;5022460;28;20965;-75